Time;durP1;ratioP1;P1;durP2;ratioP2;P2;SDS_P1;SDS_P2;PMS_P1;PMS_P2;Temp;Humidity;BMP_temperature;BMP_pressure;BME280_temperature;BME280_humidity;BME280_pressure;Samples;Min_cycle;Max_cycle;Signal;HPM_P1;HPM_P2
2023/04/09 00:00:42;;;;;;;27.70;17.80;;;;;;;8.96;88.20;102479.16;5071943;28;20115;-80
2023/04/09 00:03:07;;;;;;;26.23;16.43;;;;;;;9.01;88.21;102480.09;5072899;28;20101;-80
2023/04/09 00:05:37;;;;;;;31.00;20.97;;;;;;;8.97;89.33;102486.09;5072638;28;20025;-80
2023/04/09 00:08:03;;;;;;;31.00;20.35;;;;;;;8.98;88.74;102474.91;5072276;28;20487;-80
2023/04/09 00:10:28;;;;;;;32.57;21.97;;;;;;;8.94;89.78;102473.09;5072658;28;20033;-80
2023/04/09 00:12:53;;;;;;;34.97;24.80;;;;;;;8.87;90.17;102471.25;5071736;28;20033;-80
2023/04/09 00:15:19;;;;;;;31.63;21.83;;;;;;;8.85;90.13;102465.16;5072998;28;20025;-80
2023/04/09 00:17:44;;;;;;;30.30;20.03;;;;;;;8.88;89.67;102467.81;5072317;28;20456;-80
2023/04/09 00:20:10;;;;;;;27.53;18.53;;;;;;;8.87;90.17;102466.06;5072092;28;20017;-80
2023/04/09 00:22:35;;;;;;;31.60;21.13;;;;;;;8.85;90.71;102467.75;5072413;28;20388;-80
2023/04/09 00:25:00;;;;;;;31.83;21.53;;;;;;;8.84;90.54;102468.59;5072633;28;20430;-80
2023/04/09 00:27:26;;;;;;;29.60;18.97;;;;;;;8.86;89.63;102470.34;5070977;28;20040;-80
2023/04/09 00:29:53;;;;;;;27.50;17.90;;;;;;;8.86;89.96;102469.50;5072258;28;20023;-80
2023/04/09 00:32:19;;;;;;;27.70;17.98;;;;;;;8.84;90.48;102461.69;5077921;22;20486;-80
2023/04/09 00:34:44;;;;;;;30.17;20.37;;;;;;;8.79;90.88;102461.59;5051888;28;20108;-81
2023/04/09 00:37:10;;;;;;;29.37;19.07;;;;;;;8.83;90.43;102459.97;5052415;28;20033;-81
2023/04/09 00:39:35;;;;;;;27.67;18.67;;;;;;;8.82;90.88;102460.81;5052192;28;20021;-82
2023/04/09 00:42:03;;;;;;;31.70;21.03;;;;;;;8.77;91.24;102463.31;5051935;28;20056;-81
2023/04/09 00:44:29;;;;;;;30.08;20.08;;;;;;;8.77;91.38;102449.47;5052267;28;20017;-82
2023/04/09 00:46:54;;;;;;;26.43;17.70;;;;;;;8.78;91.33;102456.41;5052591;28;20346;-81
2023/04/09 00:49:20;;;;;;;28.30;19.17;;;;;;;8.76;91.29;102458.97;5051660;28;20078;-81
2023/04/09 00:51:47;;;;;;;27.97;18.70;;;;;;;8.76;91.76;102458.09;5052322;28;20028;-81
2023/04/09 00:54:12;;;;;;;26.65;17.10;;;;;;;8.78;90.84;102459.84;5052347;28;20040;-81
2023/04/09 00:56:38;;;;;;;23.60;14.40;;;;;;;8.80;90.36;102454.72;5051551;28;20025;-81
2023/04/09 00:59:03;;;;;;;21.87;12.50;;;;;;;8.83;90.14;102459.06;5052584;28;20086;-81
2023/04/09 01:01:32;;;;;;;22.83;14.03;;;;;;;8.84;91.27;102458.22;5052140;28;20374;-81
2023/04/09 01:03:57;;;;;;;29.15;19.58;;;;;;;8.75;91.26;102449.47;5052123;28;20110;-81
2023/04/09 01:06:31;;;;;;;30.17;20.33;;;;;;;8.76;92.11;102450.31;5052197;28;20025;-82
2023/04/09 01:09:12;;;;;;;30.35;20.13;;;;;;;8.75;92.47;102452.06;5052004;28;20025;-82
2023/04/09 01:11:45;;;;;;;29.42;19.45;;;;;;;8.75;92.05;102449.47;5054512;28;20464;-81
2023/04/09 01:14:22;;;;;;;30.95;21.38;;;;;;;8.72;92.56;102444.22;5056520;28;20045;-81
2023/04/09 01:16:58;;;;;;;28.35;18.67;;;;;;;8.73;92.30;102442.50;5055518;28;20029;-81
2023/04/09 01:19:40;;;;;;;30.67;20.38;;;;;;;8.67;93.21;102444.97;5055665;28;20048;-81
2023/04/09 01:22:28;;;;;;;29.30;19.25;;;;;;;8.69;92.65;102441.56;5056091;28;20029;-82
2023/04/09 01:25:00;;;;;;;29.25;19.25;;;;;;;8.65;92.88;102432.88;5055680;28;20033;-82
2023/04/09 01:27:36;;;;;;;28.92;18.17;;;;;;;8.65;92.99;102438.06;5055708;28;20021;-82
2023/04/09 01:30:03;;;;;;;27.40;17.17;;;;;;;8.68;92.44;102436.38;5056061;28;20066;-81
2023/04/09 01:32:32;;;;;;;28.17;18.15;;;;;;;8.60;93.75;102431.06;5055057;28;20028;-82
2023/04/09 01:34:58;;;;;;;32.15;20.85;;;;;;;8.63;93.75;102438.88;5055933;28;20036;-81
2023/04/09 01:37:25;;;;;;;31.45;21.08;;;;;;;8.62;93.81;102437.13;5054794;28;20028;-82
2023/04/09 01:39:50;;;;;;;30.30;20.05;;;;;;;8.59;93.36;102435.38;5055769;28;20041;-82
2023/04/09 01:42:16;;;;;;;30.43;19.57;;;;;;;8.59;93.80;102432.78;5055591;28;20031;-82
2023/04/09 01:44:44;;;;;;;30.73;19.95;;;;;;;8.58;94.07;102423.28;5054874;28;20083;-82
2023/04/09 01:47:12;;;;;;;27.13;17.17;;;;;;;8.61;93.01;102430.22;5055858;28;20024;-82
2023/04/09 01:49:42;;;;;;;28.90;18.85;;;;;;;8.59;93.85;102429.31;5055611;28;20028;-81
2023/04/09 01:52:08;;;;;;;26.55;16.95;;;;;;;8.58;92.98;102419.78;5055020;28;20032;-82
2023/04/09 01:54:34;;;;;;;31.75;20.98;;;;;;;8.55;94.29;102433.56;5055134;28;20033;-82
2023/04/09 01:56:59;;;;;;;30.47;20.00;;;;;;;8.58;93.62;102432.72;5055335;28;20039;-82
2023/04/09 01:59:25;;;;;;;28.63;17.87;;;;;;;8.60;93.18;102428.47;5054397;28;20029;-82
2023/04/09 02:02:08;;;;;;;25.30;15.37;;;;;;;8.63;92.70;102433.72;5055406;28;20376;-82
2023/04/09 02:04:45;;;;;;;26.77;16.05;;;;;;;8.62;94.08;102438.00;5055140;28;20025;-81
2023/04/09 02:07:17;;;;;;;;;;;;;;;8.60;94.55;102431.94;5055162;28;20470;-82
2023/04/09 02:09:46;;;;;;;30.40;19.80;;;;;;;8.56;94.59;102427.53;5054916;28;19966;-82
2023/04/09 02:12:15;;;;;;;34.50;22.83;;;;;;;8.53;94.96;102432.66;5059572;28;20044;-81
2023/04/09 02:14:41;;;;;;;33.85;22.77;;;;;;;8.48;95.34;102424.81;5054538;28;20025;-81
2023/04/09 02:17:07;;;;;;;33.75;23.02;;;;;;;8.45;95.57;102429.88;5054969;28;20485;-82
2023/04/09 02:19:43;;;;;;;33.90;22.17;;;;;;;8.47;95.85;102430.81;5054076;28;20059;-81
2023/04/09 02:22:09;;;;;;;;;;;;;;;8.45;95.32;102424.72;5054795;28;20116;-82
2023/04/09 02:24:35;;;;;;;35.47;23.63;;;;;;;8.41;96.11;102422.03;5054836;28;19966;-82
2023/04/09 02:27:01;;;;;;;34.70;22.70;;;;;;;8.42;96.33;102424.66;5054258;28;20427;-82
2023/04/09 02:29:26;;;;;;;34.17;22.57;;;;;;;8.41;96.28;102422.03;5054878;28;20052;-81
2023/04/09 02:31:52;;;;;;;36.67;23.93;;;;;;;8.36;97.00;102419.34;5054879;28;20457;-82
2023/04/09 02:34:18;;;;;;;33.33;22.17;;;;;;;8.40;96.07;102423.75;5053737;28;20547;-82
2023/04/09 02:36:43;;;;;;;31.05;20.10;;;;;;;8.42;95.61;102426.38;5054205;28;20078;-82
2023/04/09 02:39:08;;;;;;;28.57;18.47;;;;;;;8.41;95.44;102411.69;5054473;28;20037;-82
2023/04/09 02:41:34;;;;;;;34.83;22.50;;;;;;;8.39;96.68;102411.66;5053625;28;20025;-82
2023/04/09 02:43:59;;;;;;;30.80;19.73;;;;;;;8.39;95.67;102410.81;5054684;28;20063;-81
2023/04/09 02:46:24;;;;;;;31.70;20.70;;;;;;;8.41;96.45;102422.03;5054267;28;20640;-82
2023/04/09 02:48:52;;;;;;;32.33;20.60;;;;;;;8.40;96.34;102412.53;5053585;28;20025;-81
2023/04/09 02:51:19;;;;;;;29.45;18.60;;;;;;;8.40;95.38;102405.66;5054181;28;20082;-82
2023/04/09 02:53:45;;;;;;;26.13;16.27;;;;;;;8.44;96.59;102411.75;5054285;28;20024;-82
2023/04/09 02:56:10;;;;;;;32.93;21.60;;;;;;;8.40;96.38;102410.81;5053620;28;20039;-81
2023/04/09 02:58:35;;;;;;;33.37;21.90;;;;;;;8.40;96.48;102409.94;5053677;28;20056;-82
2023/04/09 03:01:01;;;;;;;30.13;19.23;;;;;;;8.39;96.01;102405.63;5053952;28;20025;-82
2023/04/09 03:03:26;;;;;;;29.37;18.40;;;;;;;8.41;96.40;102411.69;5053029;28;20033;-82
2023/04/09 03:05:51;;;;;;;36.13;23.67;;;;;;;8.36;97.25;102401.25;5054071;28;20025;-82
2023/04/09 03:08:17;;;;;;;35.60;23.30;;;;;;;8.35;96.73;102402.09;5054112;28;20035;-81
2023/04/09 03:10:42;;;;;;;35.83;24.07;;;;;;;8.34;97.01;102406.41;5053650;28;20024;-82
2023/04/09 03:13:07;;;;;;;33.00;21.33;;;;;;;8.35;96.27;102405.56;5053982;28;20381;-82
2023/04/09 03:15:32;;;;;;;35.87;23.20;;;;;;;8.31;97.22;102396.00;5053672;28;20029;-82
2023/04/09 03:17:58;;;;;;;38.07;24.67;;;;;;;8.31;97.45;102400.31;5053471;28;20055;-82
2023/04/09 03:20:23;;;;;;;40.63;27.70;;;;;;;8.24;97.63;102403.59;5053641;28;20102;-82
2023/04/09 03:22:48;;;;;;;39.87;26.13;;;;;;;8.27;97.24;102398.50;5053359;28;20037;-81
2023/04/09 03:25:14;;;;;;;41.83;27.43;;;;;;;8.22;97.94;102394.97;5053883;28;20033;-81
2023/04/09 03:27:39;;;;;;;42.53;27.87;;;;;;;8.19;97.54;102388.88;5053357;28;20025;-82
2023/04/09 03:30:05;;;;;;;39.53;26.30;;;;;;;8.21;97.54;102391.50;5053229;28;20052;-82
2023/04/09 03:32:30;;;;;;;41.77;27.43;;;;;;;8.21;97.81;102391.50;5053125;28;20135;-81
2023/04/09 03:34:55;;;;;;;39.07;25.40;;;;;;;8.23;97.51;102391.50;5053479;28;20033;-81
2023/04/09 03:37:21;;;;;;;38.77;24.77;;;;;;;8.23;97.39;102384.63;5052577;28;20364;-82
2023/04/09 03:39:46;;;;;;;46.07;29.87;;;;;;;8.15;97.69;102381.91;5053474;28;20041;-81
2023/04/09 03:42:11;;;;;;;44.17;28.53;;;;;;;8.17;97.76;102384.50;5053614;28;20031;-81
2023/04/09 03:44:36;;;;;;;44.83;28.97;;;;;;;8.14;97.75;102385.31;5052351;28;20116;-82
2023/04/09 03:47:02;;;;;;;45.10;29.27;;;;;;;8.15;97.82;102383.63;5053227;28;20073;-82
2023/04/09 03:49:30;;;;;;;42.57;27.67;;;;;;;8.15;97.45;102384.47;5053086;28;20017;-81
2023/04/09 03:51:55;;;;;;;37.92;24.10;;;;;;;8.16;97.07;102382.78;5052458;28;20354;-82
2023/04/09 03:54:20;;;;;;;37.20;23.20;;;;;;;8.19;97.10;102378.53;5052888;28;20055;-81
2023/04/09 03:56:46;;;;;;;40.90;26.43;;;;;;;8.14;96.39;102374.13;5053073;28;20044;-82
2023/04/09 03:59:11;;;;;;;42.77;26.33;;;;;;;8.11;96.44;102377.50;5052239;28;20025;-82
2023/04/09 04:01:36;;;;;;;41.07;27.40;;;;;;;8.09;95.16;102376.63;5053022;28;20043;-82
2023/04/09 04:04:01;;;;;;;41.03;27.00;;;;;;;8.04;95.61;102389.47;5052943;28;20376;-82
2023/04/09 04:06:27;;;;;;;40.33;25.53;;;;;;;8.06;95.12;102384.31;5052444;28;20018;-82
2023/04/09 04:08:55;;;;;;;36.13;23.40;;;;;;;8.02;94.86;102380.78;5053277;28;20485;-82
2023/04/09 04:11:20;;;;;;;32.53;20.08;;;;;;;8.04;94.84;102378.22;5052441;28;20075;-82
2023/04/09 04:13:46;;;;;;;40.13;25.90;;;;;;;7.98;94.82;102385.88;5052419;28;20024;-82
2023/04/09 04:16:11;;;;;;;36.87;23.40;;;;;;;8.03;94.48;102386.81;5053293;28;20115;-82
2023/04/09 04:18:36;;;;;;;35.53;22.10;;;;;;;8.00;94.46;102385.06;5052135;28;20106;-82
2023/04/09 04:21:02;;;;;;;34.15;21.67;;;;;;;8.11;94.26;102384.41;5052483;28;20108;-81
2023/04/09 04:23:27;;;;;;;34.30;21.67;;;;;;;8.01;94.34;102391.09;5052474;28;20106;-81
2023/04/09 04:25:52;;;;;;;38.83;24.47;;;;;;;7.97;94.34;102387.56;5052363;28;20396;-81
2023/04/09 04:28:27;;;;;;;33.90;20.53;;;;;;;7.96;93.86;102383.25;5052312;28;20029;-82
2023/04/09 04:30:52;;;;;;;34.33;21.50;;;;;;;7.95;94.04;102380.63;5052718;28;20028;-82
2023/04/09 04:33:17;;;;;;;32.37;20.03;;;;;;;7.97;93.67;102381.53;5051809;28;20045;-82
2023/04/09 04:35:45;;;;;;;38.50;23.53;;;;;;;7.85;93.24;102388.19;5052715;28;20484;-82
2023/04/09 04:38:10;;;;;;;38.70;24.13;;;;;;;7.79;93.04;102377.72;5052498;28;20457;-82
2023/04/09 04:40:36;;;;;;;37.70;23.03;;;;;;;7.75;92.81;102370.75;5051913;28;20025;-82
2023/04/09 04:43:01;;;;;;;39.13;23.57;;;;;;;7.64;93.14;102380.84;5052687;28;20037;-82
2023/04/09 04:45:26;;;;;;;37.30;23.77;;;;;;;7.63;93.58;102373.09;5051324;28;20401;-81
2023/04/09 04:47:51;;;;;;;34.83;21.42;;;;;;;7.64;93.58;102380.00;5051822;28;20397;-82
2023/04/09 04:50:19;;;;;;;31.07;18.33;;;;;;;7.62;93.48;102374.78;5052838;28;20024;-82
2023/04/09 04:52:45;;;;;;;37.08;22.73;;;;;;;7.54;93.76;102379.78;5052671;28;20435;-82
2023/04/09 04:55:10;;;;;;;34.10;20.87;;;;;;;7.54;93.27;102384.09;5051678;28;20033;-82
2023/04/09 04:57:35;;;;;;;35.53;21.70;;;;;;;7.46;93.65;102389.06;5052271;28;20090;-82
2023/04/09 05:00:01;;;;;;;31.63;19.13;;;;;;;7.45;93.00;102379.56;5052281;28;20025;-82
2023/04/09 05:02:26;;;;;;;31.90;18.53;;;;;;;7.44;93.17;102385.56;5051575;28;20021;-81
2023/04/09 05:04:51;;;;;;;35.20;20.87;;;;;;;7.39;93.25;102389.78;5052795;28;20027;-82
2023/04/09 05:07:16;;;;;;;35.70;22.38;;;;;;;7.25;93.82;102390.31;5052372;28;20036;-81
2023/04/09 05:09:43;;;;;;;34.03;20.83;;;;;;;7.17;94.04;102385.81;5051731;28;20466;-82
2023/04/09 05:12:08;;;;;;;35.90;22.33;;;;;;;7.09;94.57;102389.09;5052127;28;20033;-82
2023/04/09 05:14:33;;;;;;;36.63;21.93;;;;;;;7.01;94.96;102390.63;5051981;28;20036;-82
2023/04/09 05:16:59;;;;;;;33.07;20.93;;;;;;;6.98;94.58;102392.25;5050416;28;20047;-81
2023/04/09 05:19:24;;;;;;;39.47;23.98;;;;;;;6.86;95.76;102391.13;5051778;28;20029;-82
2023/04/09 05:21:49;;;;;;;34.10;21.33;;;;;;;6.83;95.41;102380.72;5051836;28;20086;-82
2023/04/09 05:24:15;;;;;;;33.23;19.83;;;;;;;6.77;95.34;102385.69;5051329;28;20077;-82
2023/04/09 05:26:40;;;;;;;37.28;23.42;;;;;;;6.71;96.69;102388.16;5052069;28;20022;-82
2023/04/09 05:29:08;;;;;;;37.43;23.90;;;;;;;6.60;96.86;102378.44;5052001;28;20190;-81
2023/04/09 05:31:34;;;;;;;39.50;24.80;;;;;;;6.57;97.42;102391.22;5051213;28;20049;-81
2023/04/09 05:33:59;;;;;;;35.53;21.70;;;;;;;6.56;96.66;102397.22;5052033;28;20126;-81
2023/04/09 05:36:25;;;;;;;34.28;20.90;;;;;;;6.58;96.20;102395.56;5051180;28;20032;-81
2023/04/09 05:38:50;;;;;;;34.73;20.90;;;;;;;6.57;96.43;102388.66;5052248;28;20040;-82
2023/04/09 05:41:18;;;;;;;35.57;21.37;;;;;;;6.53;97.45;102389.41;5052189;28;20032;-82
2023/04/09 05:43:43;;;;;;;35.72;21.63;;;;;;;6.52;97.41;102391.94;5050891;28;20036;-82
2023/04/09 05:46:09;;;;;;;31.07;18.30;;;;;;;6.54;96.74;102392.88;5051800;28;20037;-82
2023/04/09 05:48:35;;;;;;;29.77;17.80;;;;;;;6.54;97.01;102395.44;5051826;28;20017;-82
2023/04/09 05:51:01;;;;;;;35.00;20.55;;;;;;;6.52;97.10;102390.25;5051386;28;20056;-81
2023/04/09 05:53:26;;;;;;;38.43;23.07;;;;;;;6.40;97.69;102388.22;5051750;28;20029;-81
2023/04/09 05:55:51;;;;;;;38.67;24.83;;;;;;;6.35;97.69;102382.06;5051331;28;20037;-81
2023/04/09 05:58:20;;;;;;;40.73;25.43;;;;;;;6.30;98.22;102383.63;5053198;28;20025;-81
2023/04/09 06:00:45;;;;;;;37.92;23.05;;;;;;;6.33;97.89;102394.91;5055442;28;20025;-84
2023/04/09 06:03:11;;;;;;;38.37;23.57;;;;;;;6.32;97.87;102388.00;5055044;28;20021;-84
2023/04/09 06:05:36;;;;;;;35.30;21.97;;;;;;;6.32;98.22;102393.16;5054913;28;20027;-84
2023/04/09 06:08:01;;;;;;;34.73;21.50;;;;;;;6.34;97.32;102391.50;5055442;28;20104;-82
2023/04/09 06:10:27;;;;;;;34.43;21.40;;;;;;;6.39;97.21;102390.75;5055052;28;20025;-82
2023/04/09 06:12:52;;;;;;;31.23;19.03;;;;;;;6.47;97.06;102404.72;5054827;28;20526;-84
2023/04/09 06:15:18;;;;;;;34.08;20.92;;;;;;;6.47;97.21;102400.41;5055155;28;20033;-81
2023/04/09 06:17:46;;;;;;;37.33;22.77;;;;;;;6.45;97.28;102393.47;5054896;28;20028;-81
2023/04/09 06:20:14;;;;;;;32.75;20.20;;;;;;;6.53;97.18;102401.44;5054784;28;20036;-81
2023/04/09 06:22:40;;;;;;;35.88;22.33;;;;;;;6.56;96.90;102401.53;5054771;28;20036;-81
2023/04/09 06:25:06;;;;;;;37.20;23.40;;;;;;;6.56;96.96;102404.09;5054720;28;20028;-81
2023/04/09 06:27:31;;;;;;;33.27;20.83;;;;;;;6.61;95.61;102407.66;5054160;28;20021;-81
2023/04/09 06:29:56;;;;;;;34.77;20.20;;;;;;;6.58;96.55;102397.28;5054830;28;20025;-82
2023/04/09 06:32:24;;;;;;;38.23;24.80;;;;;;;6.61;96.86;102416.28;5054274;28;20037;-82
2023/04/09 06:34:49;;;;;;;38.67;23.27;;;;;;;6.61;96.56;102405.97;5054654;28;20025;-86
2023/04/09 06:37:15;;;;;;;39.77;24.33;;;;;;;6.63;96.74;102416.31;5054924;28;20035;-84
2023/04/09 06:39:40;;;;;;;38.40;23.70;;;;;;;6.63;96.69;102406.00;5053895;28;20028;-82
2023/04/09 06:42:06;;;;;;;36.47;23.93;;;;;;;6.71;97.16;102414.81;5053312;28;20040;-83
2023/04/09 06:44:32;;;;;;;39.78;24.85;;;;;;;6.75;96.55;102421.81;5053362;28;20064;-83
2023/04/09 06:46:58;;;;;;;41.63;26.17;;;;;;;6.69;96.54;102416.50;5053299;28;20032;-82
2023/04/09 06:49:23;;;;;;;35.70;22.65;;;;;;;6.82;96.42;102417.69;5053445;28;20021;-82
2023/04/09 06:51:50;;;;;;;34.87;22.23;;;;;;;6.90;96.34;102423.91;5054520;28;20119;-82
2023/04/09 06:54:18;;;;;;;31.77;20.02;;;;;;;7.00;96.11;102418.97;5053670;28;20028;-83
2023/04/09 06:56:44;;;;;;;34.13;21.67;;;;;;;7.10;95.00;102420.94;5054325;28;20031;-84
2023/04/09 06:59:10;;;;;;;33.03;21.47;;;;;;;7.17;94.86;102425.44;5054549;28;20092;-88
2023/04/09 07:01:36;;;;;;;32.73;19.60;;;;;;;7.23;94.51;102420.41;5053566;28;20047;-86
2023/04/09 07:04:01;;;;;;;34.00;21.83;;;;;;;7.53;94.47;102428.84;5054411;28;20355;-81
2023/04/09 07:06:33;;;;;;;34.23;21.83;;;;;;;8.68;93.73;102421.69;5054002;28;20108;-82
2023/04/09 07:08:58;;;;;;;32.35;21.55;;;;;;;10.23;88.98;102416.22;5053332;28;20040;-82
2023/04/09 07:11:23;;;;;;;32.30;20.77;;;;;;;11.54;80.52;102418.22;5053736;28;20025;-82
2023/04/09 07:13:51;;;;;;;35.03;22.97;;;;;;;12.10;71.04;102424.59;5053974;28;20021;-82
2023/04/09 07:16:16;;;;;;;34.05;22.67;;;;;;;12.24;76.99;102422.03;5053100;28;20037;-83
2023/04/09 07:18:42;;;;;;;32.50;20.77;;;;;;;12.82;75.38;102418.69;5053853;28;20024;-82
2023/04/09 07:21:10;;;;;;;28.77;18.00;;;;;;;12.96;74.46;102426.50;5053790;28;20025;-82
2023/04/09 07:23:39;;;;;;;30.95;20.48;;;;;;;12.57;71.29;102419.50;5052985;28;20377;-82
2023/04/09 07:26:05;;;;;;;32.45;21.23;;;;;;;11.73;74.02;102429.56;5053771;28;20055;-84
2023/04/09 07:28:31;;;;;;;30.30;19.87;;;;;;;11.19;77.76;102431.84;5053559;28;20057;-83
2023/04/09 07:30:56;;;;;;;29.00;18.60;;;;;;;10.71;76.84;102434.91;5053411;28;20041;-84
2023/04/09 07:33:22;;;;;;;33.63;22.13;;;;;;;10.09;78.02;102428.13;5053241;28;20132;-83
2023/04/09 07:35:52;;;;;;;31.50;21.10;;;;;;;9.92;80.74;102426.19;5053465;28;20020;-84
2023/04/09 07:38:18;;;;;;;30.67;19.63;;;;;;;9.79;83.07;102426.91;5053077;28;20210;-84
2023/04/09 07:40:43;;;;;;;27.70;17.53;;;;;;;9.73;83.54;102428.53;5053118;28;20067;-85
2023/04/09 07:43:08;;;;;;;27.90;18.07;;;;;;;9.67;83.38;102432.78;5052954;28;20028;-85
2023/04/09 07:45:34;;;;;;;38.07;26.43;;;;;;;9.34;83.11;102421.97;5052974;28;20049;-85
2023/04/09 07:47:59;;;;;;;38.20;26.93;;;;;;;9.18;84.13;102425.13;5053382;28;20107;-85
2023/04/09 07:50:28;;;;;;;37.83;26.80;;;;;;;9.10;85.18;102422.41;5052416;28;20017;-85
2023/04/09 07:52:53;;;;;;;37.28;25.10;;;;;;;9.11;85.25;102422.47;5053248;28;20036;-85
2023/04/09 07:55:19;;;;;;;33.97;22.90;;;;;;;9.17;85.76;102423.38;5052327;28;20315;-84
2023/04/09 07:57:44;;;;;;;31.83;20.60;;;;;;;9.23;85.83;102411.41;5051921;28;20487;-83
2023/04/09 08:00:11;;;;;;;30.63;20.80;;;;;;;9.45;85.66;102421.25;5053144;28;20039;-83
2023/04/09 08:02:36;;;;;;;29.27;19.50;;;;;;;9.51;85.62;102419.63;5052419;28;20025;-85
2023/04/09 08:05:01;;;;;;;30.60;19.83;;;;;;;9.63;85.23;102421.50;5052263;28;20078;-84
2023/04/09 08:07:27;;;;;;;28.47;18.20;;;;;;;9.67;85.43;102417.22;5052683;28;20396;-84
2023/04/09 08:09:52;;;;;;;35.77;25.03;;;;;;;9.57;83.63;102427.47;5052952;28;20029;-83
2023/04/09 08:12:17;;;;;;;36.23;24.53;;;;;;;9.48;84.67;102421.25;5044662;28;20033;-83
2023/04/09 08:14:42;;;;;;;32.20;21.70;;;;;;;9.55;85.66;102428.28;5052797;28;20025;-83
2023/04/09 08:17:08;;;;;;;37.53;25.87;;;;;;;9.52;83.54;102428.25;5052768;28;20055;-80
2023/04/09 08:19:33;;;;;;;39.77;29.07;;;;;;;9.35;84.17;102426.25;5050995;28;20024;-83
2023/04/09 08:21:59;;;;;;;40.77;29.20;;;;;;;9.24;85.30;102423.53;5052197;28;20060;-83
2023/04/09 08:24:25;;;;;;;41.70;28.75;;;;;;;9.28;84.65;102424.44;5051902;28;20017;-84
2023/04/09 08:26:50;;;;;;;39.37;27.80;;;;;;;9.47;85.35;102435.06;5052292;28;20094;-84
2023/04/09 08:29:16;;;;;;;38.13;26.87;;;;;;;9.62;84.10;102424.06;5052613;28;20051;-84
2023/04/09 08:31:41;;;;;;;41.80;29.40;;;;;;;9.51;83.61;102432.56;5050783;28;20116;-84
2023/04/09 08:34:07;;;;;;;40.03;28.37;;;;;;;9.56;84.40;102427.44;5051369;28;20045;-85
2023/04/09 08:36:34;;;;;;;36.13;25.23;;;;;;;9.79;84.88;102424.31;5052573;28;20056;-85
2023/04/09 08:38:59;;;;;;;;;;;;;;;10.01;84.32;102425.44;5052849;28;20036;-84
2023/04/09 08:41:29;;;;;;;34.13;23.23;;;;;;;10.15;84.59;102420.41;5048747;28;19917;-84
2023/04/09 08:44:00;;;;;;;32.20;21.90;;;;;;;10.24;83.36;102424.84;5047205;28;20488;-84
2023/04/09 08:46:26;;;;;;;31.33;21.48;;;;;;;10.23;83.45;102416.22;5049811;28;20107;-84
2023/04/09 08:48:51;;;;;;;30.87;21.23;;;;;;;10.26;83.63;102421.41;5052368;28;20033;-84
2023/04/09 08:51:19;;;;;;;39.77;27.50;;;;;;;10.15;81.85;102415.22;5052628;28;20017;-83
2023/04/09 08:53:46;;;;;;;42.08;30.35;;;;;;;10.09;82.47;102418.63;5050952;28;20029;-83
2023/04/09 08:56:13;;;;;;;41.88;30.65;;;;;;;9.88;82.60;102416.66;5045988;28;20025;-83
2023/04/09 08:58:41;;;;;;;39.88;28.67;;;;;;;10.05;83.26;102417.72;5051708;28;20104;-83
2023/04/09 09:01:24;;;;;;;35.15;25.50;;;;;;;10.18;83.00;102415.28;5043214;28;20041;-84
2023/04/09 09:04:03;;;;;;;38.70;27.10;;;;;;;10.33;83.72;102417.16;5050842;28;20082;-83
2023/04/09 09:06:31;;;;;;;34.55;23.50;;;;;;;10.54;83.40;102419.16;5052077;28;20029;-83
2023/04/09 09:09:07;;;;;;;34.95;24.90;;;;;;;10.76;82.58;102420.22;5051967;28;20021;-83
2023/04/09 09:11:35;;;;;;;30.95;22.00;;;;;;;10.97;83.99;102424.75;5051808;28;20026;-87
2023/04/09 09:14:05;;;;;;;31.75;21.92;;;;;;;11.18;82.26;102417.97;5051821;28;20107;-85
2023/04/09 09:16:38;;;;;;;29.75;20.33;;;;;;;11.32;82.34;102412.88;5051114;28;20029;-83
2023/04/09 09:19:06;;;;;;;27.83;18.73;;;;;;;11.53;83.18;102411.28;5052022;28;20029;-84
2023/04/09 09:21:33;;;;;;;28.77;19.73;;;;;;;11.72;81.29;102407.03;5050559;28;20021;-83
2023/04/09 09:23:58;;;;;;;30.00;20.48;;;;;;;11.83;80.24;102409.69;5033870;28;20488;-84
2023/04/09 09:26:28;;;;;;;32.10;22.40;;;;;;;11.99;80.62;102414.13;5051728;28;20021;-83
2023/04/09 09:28:54;;;;;;;29.35;19.77;;;;;;;12.22;81.21;102402.91;5051273;28;20435;-84
2023/04/09 09:31:20;;;;;;;27.98;19.02;;;;;;;12.48;77.75;102409.94;5052364;28;20082;-84
2023/04/09 09:33:47;;;;;;;29.90;21.05;;;;;;;12.60;77.63;102409.09;5055122;28;20497;-84
2023/04/09 09:36:13;;;;;;;34.13;24.83;;;;;;;12.80;77.28;102398.69;5055291;28;20419;-84
2023/04/09 09:38:55;;;;;;;33.17;24.83;;;;;;;12.75;77.14;102400.44;5055104;28;20097;-84
2023/04/09 09:41:22;;;;;;;33.45;24.13;;;;;;;12.78;74.69;102403.00;5054208;28;20051;-84
2023/04/09 09:43:48;;;;;;;;;;;;;;;12.71;71.90;102404.78;5055548;28;20366;-84
2023/04/09 09:46:14;;;;;;;34.67;25.20;;;;;;;12.66;75.80;102391.75;5055727;28;19917;-84
2023/04/09 09:48:39;;;;;;;30.88;22.10;;;;;;;12.88;75.65;102386.53;5054966;28;20036;-83
2023/04/09 09:51:09;;;;;;;30.17;21.40;;;;;;;13.06;73.11;102390.84;5054991;28;20037;-85
2023/04/09 09:53:36;;;;;;;32.17;23.55;;;;;;;13.17;74.13;102387.38;5037986;28;20524;-83
2023/04/09 09:56:04;;;;;;;32.58;24.08;;;;;;;13.25;70.01;102385.63;5054562;28;20031;-84
2023/04/09 09:58:39;;;;;;;31.13;22.40;;;;;;;13.32;71.35;102381.28;5052579;28;20021;-83
2023/04/09 10:01:11;;;;;;;32.67;23.42;;;;;;;13.35;71.69;102387.34;5053328;28;20457;-83
2023/04/09 10:03:38;;;;;;;33.50;24.08;;;;;;;13.35;70.96;102373.41;5045919;28;20040;-83
2023/04/09 10:06:04;;;;;;;32.00;22.20;;;;;;;13.44;71.30;102374.31;5055088;28;20036;-83
2023/04/09 10:08:32;;;;;;;27.77;19.08;;;;;;;13.65;74.77;102369.03;5054801;28;20500;-83
2023/04/09 10:10:59;;;;;;;27.10;18.92;;;;;;;13.89;73.48;102373.28;5054404;28;20048;-84
2023/04/09 10:13:31;;;;;;;28.90;20.02;;;;;;;14.03;71.81;102375.81;5054710;28;20449;-83
2023/04/09 10:15:58;;;;;;;26.60;18.55;;;;;;;14.07;70.34;102367.09;5054968;28;20068;-83
2023/04/09 10:18:23;;;;;;;26.30;18.02;;;;;;;14.05;72.00;102371.44;5054075;28;20454;-83
2023/04/09 10:20:57;;;;;;;26.97;18.67;;;;;;;14.02;71.97;102367.13;5054801;28;20060;-83
2023/04/09 10:23:39;;;;;;;25.13;16.60;;;;;;;13.88;68.62;102361.09;5054091;28;20025;-84
2023/04/09 10:26:05;;;;;;;33.25;24.23;;;;;;;13.44;65.95;102360.41;5044367;28;20450;-83
2023/04/09 10:28:31;;;;;;;31.07;22.97;;;;;;;13.23;69.81;102361.28;5054386;28;20051;-83
2023/04/09 10:30:57;;;;;;;27.30;19.43;;;;;;;13.37;71.15;102356.03;5052191;28;20048;-84
2023/04/09 10:33:25;;;;;;;;;;;;;;;13.74;72.51;102356.81;5054041;28;20123;-84
2023/04/09 10:35:52;;;;;;;25.65;15.70;;;;;;;14.20;70.63;102354.81;5054622;28;20316;-84
2023/04/09 10:38:44;;;;;;;25.08;16.77;;;;;;;14.39;69.36;102342.50;5054410;28;20075;-83
2023/04/09 10:41:24;;;;;;;24.52;15.70;;;;;;;14.76;65.45;102347.50;5053720;28;20166;-84
2023/04/09 10:43:49;;;;;;;22.15;13.55;;;;;;;15.04;64.21;102346.34;5053485;28;20393;-84
2023/04/09 10:46:28;;;;;;;23.50;14.30;;;;;;;15.32;64.82;102336.47;5054101;28;20029;-84
2023/04/09 10:49:12;;;;;;;22.33;13.88;;;;;;;15.32;64.83;102338.19;5054337;28;20013;-84
2023/04/09 10:51:38;;;;;;;21.98;13.98;;;;;;;15.17;63.91;102326.16;5053914;28;20033;-84
2023/04/09 10:54:05;;;;;;;23.08;15.27;;;;;;;14.86;63.74;102334.31;5053452;28;20025;-84
2023/04/09 10:56:30;;;;;;;;;;;;;;;14.81;64.55;102334.38;5054478;28;20024;-85
2023/04/09 10:58:56;;;;;;;21.80;13.97;;;;;;;14.81;65.12;102323.91;5054235;28;19958;-83
2023/04/09 11:01:22;;;;;;;22.83;14.40;;;;;;;14.86;60.01;102334.31;5052948;28;20476;-83
2023/04/09 11:04:08;;;;;;;;;;;;;;;15.00;63.39;102329.84;5052018;28;20431;-83
2023/04/09 11:06:35;;;;;;;21.30;12.98;;;;;;;14.99;64.64;102312.41;5049280;28;19919;-83
2023/04/09 11:09:04;;;;;;;19.98;12.10;;;;;;;14.96;63.63;102315.06;5053211;28;20483;-82
2023/04/09 11:11:30;;;;;;;20.45;11.85;;;;;;;14.84;61.86;102316.06;5053560;28;20041;-83
2023/04/09 11:14:00;;;;;;;24.80;16.07;;;;;;;14.74;58.19;102317.03;5053918;28;20029;-83
2023/04/09 11:16:28;;;;;;;22.98;15.20;;;;;;;14.97;62.31;102311.56;5053853;28;20024;-84